sensor_id;sensor_type;location;lat;lon;timestamp;temperature;humidity
10441;DHT22;5268;49.346;9.522;2022-08-19T03:24:34;20.90;92.50
10441;DHT22;5268;49.346;9.522;2022-08-19T03:29:37;20.90;92.20
10441;DHT22;5268;49.346;9.522;2022-08-19T03:34:39;20.80;93.20
10441;DHT22;5268;49.346;9.522;2022-08-19T03:39:43;20.80;92.80
10441;DHT22;5268;49.346;9.522;2022-08-19T03:44:45;20.70;93.10
10441;DHT22;5268;49.346;9.522;2022-08-19T03:49:47;20.80;93.00
10441;DHT22;5268;49.346;9.522;2022-08-19T03:54:50;20.80;93.00
10441;DHT22;5268;49.346;9.522;2022-08-19T03:59:52;20.80;94.80
10441;DHT22;5268;49.346;9.522;2022-08-19T04:04:54;20.70;93.70
10441;DHT22;5268;49.346;9.522;2022-08-19T04:09:57;20.70;93.80
10441;DHT22;5268;49.346;9.522;2022-08-19T04:14:59;20.70;95.70
10441;DHT22;5268;49.346;9.522;2022-08-19T04:20:02;20.60;97.10
10441;DHT22;5268;49.346;9.522;2022-08-19T04:25:06;20.60;94.40
10441;DHT22;5268;49.346;9.522;2022-08-19T04:30:09;20.60;94.10
10441;DHT22;5268;49.346;9.522;2022-08-19T04:35:12;20.60;94.00
10441;DHT22;5268;49.346;9.522;2022-08-19T04:40:16;20.60;94.30
10441;DHT22;5268;49.346;9.522;2022-08-19T04:45:36;20.60;94.30
10441;DHT22;5268;49.346;9.522;2022-08-19T04:50:41;20.60;94.00
10441;DHT22;5268;49.346;9.522;2022-08-19T04:55:44;20.70;94.00
10441;DHT22;5268;49.346;9.522;2022-08-19T05:00:46;20.80;93.90
10441;DHT22;5268;49.346;9.522;2022-08-19T05:05:48;20.80;93.80
10441;DHT22;5268;49.346;9.522;2022-08-19T05:10:52;20.80;94.10
10441;DHT22;5268;49.346;9.522;2022-08-19T05:15:54;20.90;94.10
10441;DHT22;5268;49.346;9.522;2022-08-19T05:20:56;20.90;94.70
10441;DHT22;5268;49.346;9.522;2022-08-19T05:26:17;20.80;97.10
10441;DHT22;5268;49.346;9.522;2022-08-19T05:31:20;20.80;95.50
10441;DHT22;5268;49.346;9.522;2022-08-19T05:36:22;20.80;96.90
10441;DHT22;5268;49.346;9.522;2022-08-19T05:41:25;20.60;99.90
10441;DHT22;5268;49.346;9.522;2022-08-19T05:46:31;20.60;99.90
10441;DHT22;5268;49.346;9.522;2022-08-19T05:51:34;20.60;97.50
10441;DHT22;5268;49.346;9.522;2022-08-19T05:56:39;20.70;98.40
10441;DHT22;5268;49.346;9.522;2022-08-19T06:01:43;20.70;98.10
10441;DHT22;5268;49.346;9.522;2022-08-19T06:06:47;20.70;96.40
10441;DHT22;5268;49.346;9.522;2022-08-19T06:11:52;20.90;96.20
10441;DHT22;5268;49.346;9.522;2022-08-19T06:16:55;21.00;96.30
10441;DHT22;5268;49.346;9.522;2022-08-19T06:21:58;21.10;96.30
10441;DHT22;5268;49.346;9.522;2022-08-19T06:27:03;21.20;96.00
10441;DHT22;5268;49.346;9.522;2022-08-19T06:32:06;21.20;96.20
10441;DHT22;5268;49.346;9.522;2022-08-19T06:37:08;21.30;95.80
10441;DHT22;5268;49.346;9.522;2022-08-19T06:42:12;21.30;95.80
10441;DHT22;5268;49.346;9.522;2022-08-19T06:47:18;21.30;95.60
10441;DHT22;5268;49.346;9.522;2022-08-19T06:52:21;21.40;95.60
10441;DHT22;5268;49.346;9.522;2022-08-19T06:57:26;21.50;95.80
10441;DHT22;5268;49.346;9.522;2022-08-19T07:02:31;21.50;95.70
10441;DHT22;5268;49.346;9.522;2022-08-19T07:07:34;21.60;95.70
10441;DHT22;5268;49.346;9.522;2022-08-19T07:12:37;21.70;96.60
10441;DHT22;5268;49.346;9.522;2022-08-19T07:17:41;21.80;95.80
10441;DHT22;5268;49.346;9.522;2022-08-19T07:22:43;21.90;96.70
10441;DHT22;5268;49.346;9.522;2022-08-19T07:27:48;21.90;96.40
10441;DHT22;5268;49.346;9.522;2022-08-19T07:32:51;22.10;96.70
10441;DHT22;5268;49.346;9.522;2022-08-19T07:37:53;22.20;96.20
10441;DHT22;5268;49.346;9.522;2022-08-19T07:42:56;22.30;96.10
10441;DHT22;5268;49.346;9.522;2022-08-19T07:47:58;22.40;97.50
10441;DHT22;5268;49.346;9.522;2022-08-19T07:53:01;22.40;95.90
10441;DHT22;5268;49.346;9.522;2022-08-19T07:58:04;22.50;95.80
10441;DHT22;5268;49.346;9.522;2022-08-19T08:03:06;22.50;96.30
10441;DHT22;5268;49.346;9.522;2022-08-19T08:08:09;22.50;96.40
10441;DHT22;5268;49.346;9.522;2022-08-19T08:13:29;22.50;96.50
10441;DHT22;5268;49.346;9.522;2022-08-19T08:18:32;22.60;96.40
10441;DHT22;5268;49.346;9.522;2022-08-19T08:23:41;22.60;96.40
10441;DHT22;5268;49.346;9.522;2022-08-19T08:28:45;22.70;96.90
10441;DHT22;5268;49.346;9.522;2022-08-19T08:33:48;22.70;96.90
10441;DHT22;5268;49.346;9.522;2022-08-19T08:38:50;22.70;96.20
10441;DHT22;5268;49.346;9.522;2022-08-19T08:43:55;22.70;96.30
10441;DHT22;5268;49.346;9.522;2022-08-19T08:49:02;22.80;96.50
10441;DHT22;5268;49.346;9.522;2022-08-19T08:54:10;22.90;96.30
10441;DHT22;5268;49.346;9.522;2022-08-19T08:59:21;23.00;96.40
10441;DHT22;5268;49.346;9.522;2022-08-19T09:04:23;23.00;96.60
10441;DHT22;5268;49.346;9.522;2022-08-19T09:09:28;23.20;98.20
10441;DHT22;5268;49.346;9.522;2022-08-19T09:14:39;23.30;96.60
10441;DHT22;5268;49.346;9.522;2022-08-19T09:19:50;23.50;96.60
10441;DHT22;5268;49.346;9.522;2022-08-19T09:24:53;23.60;96.90
10441;DHT22;5268;49.346;9.522;2022-08-19T09:29:56;23.70;96.50
10441;DHT22;5268;49.346;9.522;2022-08-19T09:34:58;23.80;96.70
10441;DHT22;5268;49.346;9.522;2022-08-19T09:40:03;23.90;96.90
10441;DHT22;5268;49.346;9.522;2022-08-19T09:45:07;24.00;96.90
10441;DHT22;5268;49.346;9.522;2022-08-19T09:50:11;24.10;96.80
10441;DHT22;5268;49.346;9.522;2022-08-19T09:55:14;24.20;96.80
10441;DHT22;5268;49.346;9.522;2022-08-19T10:00:18;24.30;96.90
10441;DHT22;5268;49.346;9.522;2022-08-19T10:05:21;24.40;96.70
10441;DHT22;5268;49.346;9.522;2022-08-19T10:10:41;24.40;96.50
10441;DHT22;5268;49.346;9.522;2022-08-19T10:15:45;24.40;96.30
10441;DHT22;5268;49.346;9.522;2022-08-19T10:20:48;24.30;96.00
10441;DHT22;5268;49.346;9.522;2022-08-19T10:25:51;24.30;96.10
10441;DHT22;5268;49.346;9.522;2022-08-19T10:30:55;24.20;96.10
10441;DHT22;5268;49.346;9.522;2022-08-19T10:35:59;24.30;96.40
10441;DHT22;5268;49.346;9.522;2022-08-19T10:41:09;24.40;96.20
10441;DHT22;5268;49.346;9.522;2022-08-19T10:46:14;24.40;96.20
10441;DHT22;5268;49.346;9.522;2022-08-19T10:51:17;24.40;96.10
10441;DHT22;5268;49.346;9.522;2022-08-19T10:56:36;24.50;96.10
10441;DHT22;5268;49.346;9.522;2022-08-19T11:01:59;24.60;96.30
10441;DHT22;5268;49.346;9.522;2022-08-19T11:07:02;24.70;96.40
10441;DHT22;5268;49.346;9.522;2022-08-19T11:12:05;24.80;96.00
10441;DHT22;5268;49.346;9.522;2022-08-19T11:17:09;25.00;95.80
10441;DHT22;5268;49.346;9.522;2022-08-19T11:22:14;25.20;95.50
10441;DHT22;5268;49.346;9.522;2022-08-19T11:27:16;25.40;95.10
10441;DHT22;5268;49.346;9.522;2022-08-19T11:32:19;25.50;94.90
10441;DHT22;5268;49.346;9.522;2022-08-19T11:37:21;25.60;94.60
10441;DHT22;5268;49.346;9.522;2022-08-19T11:42:23;25.60;94.20
10441;DHT22;5268;49.346;9.522;2022-08-19T11:47:44;25.60;93.80
10441;DHT22;5268;49.346;9.522;2022-08-19T11:52:47;25.70;93.40
10441;DHT22;5268;49.346;9.522;2022-08-19T11:57:50;25.80;92.90
10441;DHT22;5268;49.346;9.522;2022-08-19T12:02:53;25.90;92.50
10441;DHT22;5268;49.346;9.522;2022-08-19T12:07:56;26.00;92.60
10441;DHT22;5268;49.346;9.522;2022-08-19T12:12:58;26.10;92.80
10441;DHT22;5268;49.346;9.522;2022-08-19T12:18:02;26.20;92.00
10441;DHT22;5268;49.346;9.522;2022-08-19T12:23:05;26.20;92.30
10441;DHT22;5268;49.346;9.522;2022-08-19T12:28:08;26.30;92.10
10441;DHT22;5268;49.346;9.522;2022-08-19T12:33:11;26.30;90.70
10441;DHT22;5268;49.346;9.522;2022-08-19T12:38:14;26.20;90.30
10441;DHT22;5268;49.346;9.522;2022-08-19T12:43:16;26.10;91.20
10441;DHT22;5268;49.346;9.522;2022-08-19T12:48:19;26.10;89.70
10441;DHT22;5268;49.346;9.522;2022-08-19T12:53:21;26.10;91.30
10441;DHT22;5268;49.346;9.522;2022-08-19T12:58:29;26.10;91.10
10441;DHT22;5268;49.346;9.522;2022-08-19T13:03:33;26.30;90.20
10441;DHT22;5268;49.346;9.522;2022-08-19T13:08:36;26.40;89.40
10441;DHT22;5268;49.346;9.522;2022-08-19T13:13:39;26.40;88.80
10441;DHT22;5268;49.346;9.522;2022-08-19T13:18:45;26.50;90.30
10441;DHT22;5268;49.346;9.522;2022-08-19T13:23:48;26.50;89.90
10441;DHT22;5268;49.346;9.522;2022-08-19T13:28:50;26.60;90.00
10441;DHT22;5268;49.346;9.522;2022-08-19T13:34:11;26.60;89.80
10441;DHT22;5268;49.346;9.522;2022-08-19T13:39:13;26.70;89.80
10441;DHT22;5268;49.346;9.522;2022-08-19T13:44:16;26.80;90.00
10441;DHT22;5268;49.346;9.522;2022-08-19T13:49:21;26.80;84.00
10441;DHT22;5268;49.346;9.522;2022-08-19T13:54:23;26.90;85.30
10441;DHT22;5268;49.346;9.522;2022-08-19T13:59:25;27.00;87.60
10441;DHT22;5268;49.346;9.522;2022-08-19T14:04:28;27.10;88.60
10441;DHT22;5268;49.346;9.522;2022-08-19T14:09:30;27.00;87.60
10441;DHT22;5268;49.346;9.522;2022-08-19T14:14:36;27.00;89.50
10441;DHT22;5268;49.346;9.522;2022-08-19T14:19:39;26.90;89.70
10441;DHT22;5268;49.346;9.522;2022-08-19T14:24:41;26.90;89.60
10441;DHT22;5268;49.346;9.522;2022-08-19T14:29:43;26.80;89.80
10441;DHT22;5268;49.346;9.522;2022-08-19T14:34:47;26.70;89.70
10441;DHT22;5268;49.346;9.522;2022-08-19T14:39:49;26.60;90.20
10441;DHT22;5268;49.346;9.522;2022-08-19T14:44:51;26.60;90.30
10441;DHT22;5268;49.346;9.522;2022-08-19T14:49:55;26.60;90.00
10441;DHT22;5268;49.346;9.522;2022-08-19T14:54:57;26.50;89.50
10441;DHT22;5268;49.346;9.522;2022-08-19T14:59:59;26.50;90.20
10441;DHT22;5268;49.346;9.522;2022-08-19T15:05:02;26.50;90.00
10441;DHT22;5268;49.346;9.522;2022-08-19T15:10:07;26.50;90.00
10441;DHT22;5268;49.346;9.522;2022-08-19T15:15:12;26.50;90.10
10441;DHT22;5268;49.346;9.522;2022-08-19T15:20:18;26.60;90.30
10441;DHT22;5268;49.346;9.522;2022-08-19T15:25:21;26.60;89.30
10441;DHT22;5268;49.346;9.522;2022-08-19T15:30:25;26.60;89.10
10441;DHT22;5268;49.346;9.522;2022-08-19T15:35:29;26.60;89.20
10441;DHT22;5268;49.346;9.522;2022-08-19T15:40:31;26.50;89.80
10441;DHT22;5268;49.346;9.522;2022-08-19T15:45:33;26.40;89.70
10441;DHT22;5268;49.346;9.522;2022-08-19T15:50:36;26.40;89.80
10441;DHT22;5268;49.346;9.522;2022-08-19T15:55:42;26.30;90.00
10441;DHT22;5268;49.346;9.522;2022-08-19T16:00:45;26.30;90.10
10441;DHT22;5268;49.346;9.522;2022-08-19T16:06:05;26.30;90.10
10441;DHT22;5268;49.346;9.522;2022-08-19T16:11:27;26.20;90.10
10441;DHT22;5268;49.346;9.522;2022-08-19T16:16:32;26.20;90.20
10441;DHT22;5268;49.346;9.522;2022-08-19T16:21:35;26.20;90.20
10441;DHT22;5268;49.346;9.522;2022-08-19T16:26:40;26.10;90.10
10441;DHT22;5268;49.346;9.522;2022-08-19T16:31:44;26.10;90.10
10441;DHT22;5268;49.346;9.522;2022-08-19T16:36:49;26.00;90.20
10441;DHT22;5268;49.346;9.522;2022-08-19T16:41:51;26.00;90.20
10441;DHT22;5268;49.346;9.522;2022-08-19T16:46:53;26.00;90.30
10441;DHT22;5268;49.346;9.522;2022-08-19T16:51:57;25.90;90.30
10441;DHT22;5268;49.346;9.522;2022-08-19T16:56:59;25.90;90.30
10441;DHT22;5268;49.346;9.522;2022-08-19T17:02:01;25.90;90.30
10441;DHT22;5268;49.346;9.522;2022-08-19T17:07:04;25.80;90.30
10441;DHT22;5268;49.346;9.522;2022-08-19T17:12:07;25.80;90.40
10441;DHT22;5268;49.346;9.522;2022-08-19T17:17:09;25.70;90.40
10441;DHT22;5268;49.346;9.522;2022-08-19T17:22:13;25.60;90.40
10441;DHT22;5268;49.346;9.522;2022-08-19T17:27:15;25.60;90.40
10441;DHT22;5268;49.346;9.522;2022-08-19T17:32:19;25.50;90.40
10441;DHT22;5268;49.346;9.522;2022-08-19T17:37:22;25.50;90.40
10441;DHT22;5268;49.346;9.522;2022-08-19T17:42:24;25.50;90.40
10441;DHT22;5268;49.346;9.522;2022-08-19T17:47:29;25.40;90.40
10441;DHT22;5268;49.346;9.522;2022-08-19T17:52:33;25.40;90.40
10441;DHT22;5268;49.346;9.522;2022-08-19T17:57:36;25.30;90.40
10441;DHT22;5268;49.346;9.522;2022-08-19T18:02:43;25.30;90.40
10441;DHT22;5268;49.346;9.522;2022-08-19T18:07:48;25.20;90.40
10441;DHT22;5268;49.346;9.522;2022-08-19T18:12:51;25.20;90.50
10441;DHT22;5268;49.346;9.522;2022-08-19T18:17:53;25.10;90.50
10441;DHT22;5268;49.346;9.522;2022-08-19T18:22:57;25.00;90.60
10441;DHT22;5268;49.346;9.522;2022-08-19T18:28:00;24.90;90.70
10441;DHT22;5268;49.346;9.522;2022-08-19T18:33:04;24.80;91.10
10441;DHT22;5268;49.346;9.522;2022-08-19T18:38:11;24.70;92.20
10441;DHT22;5268;49.346;9.522;2022-08-19T18:43:31;24.60;91.30
10441;DHT22;5268;49.346;9.522;2022-08-19T18:48:51;24.50;91.10
10441;DHT22;5268;49.346;9.522;2022-08-19T18:54:06;24.40;91.10
10441;DHT22;5268;49.346;9.522;2022-08-19T18:59:10;24.30;91.10
10441;DHT22;5268;49.346;9.522;2022-08-19T19:04:13;24.20;91.20
10441;DHT22;5268;49.346;9.522;2022-08-19T19:09:19;24.20;91.40
10441;DHT22;5268;49.346;9.522;2022-08-19T19:14:25;24.10;91.70
10441;DHT22;5268;49.346;9.522;2022-08-19T19:19:32;24.00;92.30
10441;DHT22;5268;49.346;9.522;2022-08-19T19:24:37;23.90;91.90
10441;DHT22;5268;49.346;9.522;2022-08-19T19:29:39;23.90;92.00
10441;DHT22;5268;49.346;9.522;2022-08-19T19:34:42;23.80;92.00
10441;DHT22;5268;49.346;9.522;2022-08-19T19:39:45;23.70;93.30
10441;DHT22;5268;49.346;9.522;2022-08-19T19:44:48;23.60;93.20
10441;DHT22;5268;49.346;9.522;2022-08-19T19:49:51;23.50;92.50
10441;DHT22;5268;49.346;9.522;2022-08-19T19:54:56;23.30;95.10
10441;DHT22;5268;49.346;9.522;2022-08-19T19:59:58;23.30;93.60
10441;DHT22;5268;49.346;9.522;2022-08-19T20:05:00;23.20;93.30
10441;DHT22;5268;49.346;9.522;2022-08-19T20:10:04;23.10;93.10
10441;DHT22;5268;49.346;9.522;2022-08-19T20:15:07;23.00;93.40
10441;DHT22;5268;49.346;9.522;2022-08-19T20:20:10;22.90;93.40
10441;DHT22;5268;49.346;9.522;2022-08-19T20:25:16;22.80;93.30
10441;DHT22;5268;49.346;9.522;2022-08-19T20:30:20;22.70;93.50
10441;DHT22;5268;49.346;9.522;2022-08-19T20:35:23;22.60;93.70
10441;DHT22;5268;49.346;9.522;2022-08-19T20:40:27;22.50;93.30
10441;DHT22;5268;49.346;9.522;2022-08-19T20:45:30;22.40;93.40
10441;DHT22;5268;49.346;9.522;2022-08-19T20:50:33;22.30;93.50
10441;DHT22;5268;49.346;9.522;2022-08-19T20:55:37;22.30;93.60
10441;DHT22;5268;49.346;9.522;2022-08-19T21:00:39;22.20;93.60
10441;DHT22;5268;49.346;9.522;2022-08-19T21:05:43;22.10;93.50
10441;DHT22;5268;49.346;9.522;2022-08-19T21:10:49;22.10;93.80
10441;DHT22;5268;49.346;9.522;2022-08-19T21:15:51;22.10;93.90
10441;DHT22;5268;49.346;9.522;2022-08-19T21:20:54;22.00;93.80
10441;DHT22;5268;49.346;9.522;2022-08-19T21:25:59;21.90;94.20
